sensor_id;sensor_type;location;lat;lon;timestamp;pressure;altitude;pressure_sealevel;temperature;humidity
12054;BME280;5638;50.860;4.698;2022-11-15T00:00:53;100393.28;;;11.38;nan
12054;BME280;5638;50.860;4.698;2022-11-15T00:03:22;100392.59;;;11.32;nan
12054;BME280;5638;50.860;4.698;2022-11-15T00:05:49;100372.81;;;11.28;nan
12054;BME280;5638;50.860;4.698;2022-11-15T00:08:15;100402.69;;;11.42;nan
12054;BME280;5638;50.860;4.698;2022-11-15T00:10:42;100356.38;;;11.30;nan
12054;BME280;5638;50.860;4.698;2022-11-15T00:13:10;100394.78;;;11.47;nan
12054;BME280;5638;50.860;4.698;2022-11-15T00:15:41;100385.34;;;11.44;nan
12054;BME280;5638;50.860;4.698;2022-11-15T00:18:15;100378.47;;;11.43;nan
12054;BME280;5638;50.860;4.698;2022-11-15T00:20:42;100387.81;;;11.49;nan
12054;BME280;5638;50.860;4.698;2022-11-15T00:23:09;100380.88;;;11.51;nan
12054;BME280;5638;50.860;4.698;2022-11-15T00:25:35;100381.03;;;11.45;nan
12054;BME280;5638;50.860;4.698;2022-11-15T00:28:01;100385.34;;;11.44;nan
12054;BME280;5638;50.860;4.698;2022-11-15T00:30:28;100387.88;;;11.47;nan
12054;BME280;5638;50.860;4.698;2022-11-15T00:32:54;100393.63;;;11.59;nan
12054;BME280;5638;50.860;4.698;2022-11-15T00:35:21;100396.41;;;11.51;nan
12054;BME280;5638;50.860;4.698;2022-11-15T00:37:47;100383.72;;;11.42;nan
12054;BME280;5638;50.860;4.698;2022-11-15T00:40:14;100384.44;;;11.47;nan
12054;BME280;5638;50.860;4.698;2022-11-15T00:42:41;100380.34;;;11.37;nan
12054;BME280;5638;50.860;4.698;2022-11-15T00:45:10;100406.00;;;11.47;nan
12054;BME280;5638;50.860;4.698;2022-11-15T00:47:36;100394.50;;;11.58;nan
12054;BME280;5638;50.860;4.698;2022-11-15T00:50:01;100375.78;;;11.48;nan
12054;BME280;5638;50.860;4.698;2022-11-15T00:52:27;100388.25;;;11.66;nan
12054;BME280;5638;50.860;4.698;2022-11-15T00:54:53;100390.16;;;11.60;nan
12054;BME280;5638;50.860;4.698;2022-11-15T00:57:19;100395.38;;;11.58;nan
12054;BME280;5638;50.860;4.698;2022-11-15T00:59:45;100393.00;;;11.51;nan
12054;BME280;5638;50.860;4.698;2022-11-15T01:02:11;100403.75;;;11.68;nan
12054;BME280;5638;50.860;4.698;2022-11-15T01:04:36;100367.72;;;11.59;nan
12054;BME280;5638;50.860;4.698;2022-11-15T01:07:02;100396.69;;;11.75;nan
12054;BME280;5638;50.860;4.698;2022-11-15T01:09:28;100394.03;;;11.76;nan
12054;BME280;5638;50.860;4.698;2022-11-15T01:11:54;100362.88;;;11.46;nan
12054;BME280;5638;50.860;4.698;2022-11-15T01:14:21;100394.41;;;11.62;nan
12054;BME280;5638;50.860;4.698;2022-11-15T01:16:50;100371.19;;;11.58;nan
12054;BME280;5638;50.860;4.698;2022-11-15T01:19:15;100390.03;;;11.64;nan
12054;BME280;5638;50.860;4.698;2022-11-15T01:21:41;100374.59;;;11.60;nan
12054;BME280;5638;50.860;4.698;2022-11-15T01:24:12;100385.69;;;11.65;nan
12054;BME280;5638;50.860;4.698;2022-11-15T01:26:38;100382.19;;;11.67;nan
12054;BME280;5638;50.860;4.698;2022-11-15T01:29:04;100373.50;;;11.68;nan
12054;BME280;5638;50.860;4.698;2022-11-15T01:31:30;100364.28;;;11.91;nan
12054;BME280;5638;50.860;4.698;2022-11-15T01:33:56;100377.16;;;11.95;nan
12054;BME280;5638;50.860;4.698;2022-11-15T01:36:22;100365.53;;;11.76;nan
12054;BME280;5638;50.860;4.698;2022-11-15T01:38:58;100368.06;;;11.79;nan
12054;BME280;5638;50.860;4.698;2022-11-15T01:41:29;100376.25;;;11.96;nan
12054;BME280;5638;50.860;4.698;2022-11-15T01:44:31;100363.59;;;12.15;nan
12054;BME280;5638;50.860;4.698;2022-11-15T01:46:47;100368.97;;;12.09;nan
12054;BME280;5638;50.860;4.698;2022-11-15T01:49:19;100365.81;;;11.98;nan
12054;BME280;5638;50.860;4.698;2022-11-15T01:51:46;100365.06;;;11.94;nan
12054;BME280;5638;50.860;4.698;2022-11-15T01:54:17;100344.72;;;11.79;nan
12054;BME280;5638;50.860;4.698;2022-11-15T01:56:59;100354.88;;;11.87;nan
12054;BME280;5638;50.860;4.698;2022-11-15T01:59:28;100356.03;;;12.08;nan
12054;BME280;5638;50.860;4.698;2022-11-15T02:01:54;100362.56;;;11.91;nan
12054;BME280;5638;50.860;4.698;2022-11-15T02:04:28;100365.06;;;11.94;nan
12054;BME280;5638;50.860;4.698;2022-11-15T02:06:55;100359.34;;;11.83;nan
12054;BME280;5638;50.860;4.698;2022-11-15T02:09:21;100355.09;;;11.79;nan
12054;BME280;5638;50.860;4.698;2022-11-15T02:11:49;100346.41;;;11.80;nan
12054;BME280;5638;50.860;4.698;2022-11-15T02:14:20;100330.38;;;11.67;nan
12054;BME280;5638;50.860;4.698;2022-11-15T02:18:08;100348.97;;;11.82;nan
12054;BME280;5638;50.860;4.698;2022-11-15T02:29:59;100332.31;;;11.92;nan
12054;BME280;5638;50.860;4.698;2022-11-15T02:32:47;100326.00;;;12.01;nan
12054;BME280;5638;50.860;4.698;2022-11-15T02:38:32;100319.78;;;12.06;nan
12054;BME280;5638;50.860;4.698;2022-11-15T02:41:08;100323.44;;;11.99;nan
12054;BME280;5638;50.860;4.698;2022-11-15T02:43:51;100319.84;;;12.05;nan
12054;BME280;5638;50.860;4.698;2022-11-15T02:49:18;100311.06;;;11.78;nan
12054;BME280;5638;50.860;4.698;2022-11-15T02:51:47;100309.97;;;11.86;nan
12054;BME280;5638;50.860;4.698;2022-11-15T02:54:25;100320.19;;;11.92;nan
12054;BME280;5638;50.860;4.698;2022-11-15T02:57:10;100305.75;;;11.82;nan
12054;BME280;5638;50.860;4.698;2022-11-15T03:00:04;100314.28;;;11.87;nan
12054;BME280;5638;50.860;4.698;2022-11-15T03:06:15;100297.13;;;11.82;nan
12054;BME280;5638;50.860;4.698;2022-11-15T03:09:19;100303.94;;;11.86;nan
12054;BME280;5638;50.860;4.698;2022-11-15T03:11:59;100301.34;;;11.87;nan
12054;BME280;5638;50.860;4.698;2022-11-15T03:14:38;100291.94;;;11.82;nan
12054;BME280;5638;50.860;4.698;2022-11-15T03:17:36;100293.91;;;12.05;nan
12054;BME280;5638;50.860;4.698;2022-11-15T03:20:07;100294.19;;;11.95;nan
12054;BME280;5638;50.860;4.698;2022-11-15T03:22:41;100262.66;;;11.78;nan
12054;BME280;5638;50.860;4.698;2022-11-15T03:25:15;100290.06;;;11.88;nan
12054;BME280;5638;50.860;4.698;2022-11-15T03:27:49;100292.78;;;11.84;nan
12054;BME280;5638;50.860;4.698;2022-11-15T03:30:17;100285.25;;;11.75;nan
12054;BME280;5638;50.860;4.698;2022-11-15T03:32:54;100279.13;;;11.77;nan
12054;BME280;5638;50.860;4.698;2022-11-15T03:35:27;100298.75;;;11.87;nan
12054;BME280;5638;50.860;4.698;2022-11-15T03:38:22;100307.31;;;11.89;nan
12054;BME280;5638;50.860;4.698;2022-11-15T03:41:01;100303.09;;;11.85;nan
12054;BME280;5638;50.860;4.698;2022-11-15T03:46:27;100291.84;;;11.86;nan
12054;BME280;5638;50.860;4.698;2022-11-15T03:49:22;100280.41;;;11.93;nan
12054;BME280;5638;50.860;4.698;2022-11-15T03:51:50;100287.47;;;11.88;nan
12054;BME280;5638;50.860;4.698;2022-11-15T03:54:16;100291.06;;;11.84;nan
12054;BME280;5638;50.860;4.698;2022-11-15T03:56:41;100293.75;;;11.80;nan
12054;BME280;5638;50.860;4.698;2022-11-15T03:59:07;100298.69;;;11.89;nan
12054;BME280;5638;50.860;4.698;2022-11-15T04:01:33;100298.88;;;11.81;nan
12054;BME280;5638;50.860;4.698;2022-11-15T04:03:59;100277.78;;;11.64;nan
12054;BME280;5638;50.860;4.698;2022-11-15T04:06:25;100281.75;;;11.76;nan
12054;BME280;5638;50.860;4.698;2022-11-15T04:08:51;100294.66;;;11.77;nan
12054;BME280;5638;50.860;4.698;2022-11-15T04:11:16;100309.13;;;11.87;nan
12054;BME280;5638;50.860;4.698;2022-11-15T04:13:42;100285.41;;;11.68;nan
12054;BME280;5638;50.860;4.698;2022-11-15T04:16:08;100303.34;;;11.76;nan
12054;BME280;5638;50.860;4.698;2022-11-15T04:18:34;100308.59;;;11.75;nan
12054;BME280;5638;50.860;4.698;2022-11-15T04:20:59;100300.06;;;11.69;nan
12054;BME280;5638;50.860;4.698;2022-11-15T04:23:44;100308.53;;;11.76;nan
12054;BME280;5638;50.860;4.698;2022-11-15T04:26:21;100308.34;;;11.82;nan
12054;BME280;5638;50.860;4.698;2022-11-15T04:28:48;100289.81;;;11.66;nan
12054;BME280;5638;50.860;4.698;2022-11-15T04:31:33;100275.94;;;11.67;nan
12054;BME280;5638;50.860;4.698;2022-11-15T04:33:58;100290.22;;;11.84;nan
12054;BME280;5638;50.860;4.698;2022-11-15T04:36:25;100300.56;;;11.82;nan
12054;BME280;5638;50.860;4.698;2022-11-15T04:39:09;100301.53;;;11.78;nan
12054;BME280;5638;50.860;4.698;2022-11-15T04:41:35;100303.41;;;11.73;nan
12054;BME280;5638;50.860;4.698;2022-11-15T04:44:01;100305.28;;;11.68;nan
12054;BME280;5638;50.860;4.698;2022-11-15T04:46:27;100297.84;;;11.56;nan
12054;BME280;5638;50.860;4.698;2022-11-15T04:48:54;100290.28;;;11.48;nan
12054;BME280;5638;50.860;4.698;2022-11-15T04:51:20;100309.88;;;11.58;nan
12054;BME280;5638;50.860;4.698;2022-11-15T04:53:46;100301.50;;;11.48;nan
12054;BME280;5638;50.860;4.698;2022-11-15T04:56:12;100297.13;;;11.51;nan
12054;BME280;5638;50.860;4.698;2022-11-15T04:58:38;100306.41;;;11.58;nan
12054;BME280;5638;50.860;4.698;2022-11-15T05:01:13;100294.63;;;11.47;nan
12054;BME280;5638;50.860;4.698;2022-11-15T05:03:44;100305.81;;;11.50;nan
12054;BME280;5638;50.860;4.698;2022-11-15T05:06:29;100273.19;;;11.41;nan
12054;BME280;5638;50.860;4.698;2022-11-15T05:08:55;100282.81;;;11.37;nan
12054;BME280;5638;50.860;4.698;2022-11-15T05:11:22;100304.91;;;11.51;nan
12054;BME280;5638;50.860;4.698;2022-11-15T05:13:48;100293.19;;;11.37;nan
12054;BME280;5638;50.860;4.698;2022-11-15T05:16:14;100279.47;;;11.32;nan
12054;BME280;5638;50.860;4.698;2022-11-15T05:18:40;100296.41;;;11.45;nan
12054;BME280;5638;50.860;4.698;2022-11-15T05:21:10;100298.47;;;11.33;nan
12054;BME280;5638;50.860;4.698;2022-11-15T05:23:37;100303.63;;;11.34;nan
12054;BME280;5638;50.860;4.698;2022-11-15T05:26:06;100302.78;;;11.32;nan
12054;BME280;5638;50.860;4.698;2022-11-15T05:28:33;100301.34;;;11.22;nan
12054;BME280;5638;50.860;4.698;2022-11-15T05:31:03;100306.22;;;11.34;nan
12054;BME280;5638;50.860;4.698;2022-11-15T05:33:31;100288.34;;;11.23;nan
12054;BME280;5638;50.860;4.698;2022-11-15T05:36:39;100308.06;;;11.29;nan
12054;BME280;5638;50.860;4.698;2022-11-15T05:39:07;100287.19;;;11.35;nan
12054;BME280;5638;50.860;4.698;2022-11-15T05:41:48;100290.81;;;11.28;nan
12054;BME280;5638;50.860;4.698;2022-11-15T05:44:20;100301.41;;;11.20;nan
12054;BME280;5638;50.860;4.698;2022-11-15T05:46:48;100301.34;;;11.22;nan
12054;BME280;5638;50.860;4.698;2022-11-15T05:49:20;100313.47;;;11.20;nan
12054;BME280;5638;50.860;4.698;2022-11-15T05:51:48;100306.84;;;11.10;nan
12054;BME280;5638;50.860;4.698;2022-11-15T05:54:16;100307.84;;;11.04;nan
12054;BME280;5638;50.860;4.698;2022-11-15T05:56:43;100312.38;;;10.96;nan
12054;BME280;5638;50.860;4.698;2022-11-15T05:59:10;100316.56;;;11.00;nan
12054;BME280;5638;50.860;4.698;2022-11-15T06:01:38;100313.22;;;10.95;nan
12054;BME280;5638;50.860;4.698;2022-11-15T06:04:04;100306.41;;;10.92;nan
12054;BME280;5638;50.860;4.698;2022-11-15T06:06:30;100308.94;;;10.95;nan
12054;BME280;5638;50.860;4.698;2022-11-15T06:08:56;100300.28;;;10.95;nan
12054;BME280;5638;50.860;4.698;2022-11-15T06:11:22;100302.25;;;10.87;nan
12054;BME280;5638;50.860;4.698;2022-11-15T06:13:47;100312.44;;;10.93;nan
12054;BME280;5638;50.860;4.698;2022-11-15T06:16:13;100311.66;;;10.89;nan
12054;BME280;5638;50.860;4.698;2022-11-15T06:18:40;100314.25;;;10.89;nan
12054;BME280;5638;50.860;4.698;2022-11-15T06:21:06;100315.25;;;10.84;nan
12054;BME280;5638;50.860;4.698;2022-11-15T06:23:34;100305.84;;;10.80;nan
12054;BME280;5638;50.860;4.698;2022-11-15T06:26:03;100316.16;;;10.81;nan
12054;BME280;5638;50.860;4.698;2022-11-15T06:28:31;100308.56;;;10.75;nan
12054;BME280;5638;50.860;4.698;2022-11-15T06:31:06;100306.66;;;10.82;nan
12054;BME280;5638;50.860;4.698;2022-11-15T06:33:33;100277.47;;;10.39;nan
12054;BME280;5638;50.860;4.698;2022-11-15T06:36:08;100326.09;;;10.62;nan
12054;BME280;5638;50.860;4.698;2022-11-15T06:38:35;100308.72;;;10.67;nan
12054;BME280;5638;50.860;4.698;2022-11-15T06:41:08;100290.09;;;10.53;nan
12054;BME280;5638;50.860;4.698;2022-11-15T06:43:35;100318.97;;;10.72;nan
12054;BME280;5638;50.860;4.698;2022-11-15T06:46:03;100305.44;;;10.61;nan
12054;BME280;5638;50.860;4.698;2022-11-15T06:48:31;100312.13;;;10.69;nan
12054;BME280;5638;50.860;4.698;2022-11-15T06:51:02;100298.59;;;10.58;nan
12054;BME280;5638;50.860;4.698;2022-11-15T06:53:30;100299.44;;;10.59;nan
12054;BME280;5638;50.860;4.698;2022-11-15T06:56:02;100305.53;;;10.56;nan
12054;BME280;5638;50.860;4.698;2022-11-15T06:58:28;100320.09;;;10.62;nan
12054;BME280;5638;50.860;4.698;2022-11-15T07:00:59;100303.34;;;10.39;nan
12054;BME280;5638;50.860;4.698;2022-11-15T07:03:26;100321.00;;;10.59;nan
12054;BME280;5638;50.860;4.698;2022-11-15T07:05:55;100315.25;;;10.46;nan
12054;BME280;5638;50.860;4.698;2022-11-15T07:08:23;100321.34;;;10.44;nan
12054;BME280;5638;50.860;4.698;2022-11-15T07:10:49;100324.97;;;10.37;nan
12054;BME280;5638;50.860;4.698;2022-11-15T07:13:15;100323.81;;;10.48;nan
12054;BME280;5638;50.860;4.698;2022-11-15T07:15:41;100322.13;;;10.47;nan
12054;BME280;5638;50.860;4.698;2022-11-15T07:18:07;100324.91;;;10.38;nan
12054;BME280;5638;50.860;4.698;2022-11-15T07:20:33;100338.66;;;10.40;nan
12054;BME280;5638;50.860;4.698;2022-11-15T07:23:04;100338.78;;;10.34;nan
12054;BME280;5638;50.860;4.698;2022-11-15T07:25:31;100322.72;;;10.20;nan
12054;BME280;5638;50.860;4.698;2022-11-15T07:27:59;100331.78;;;10.39;nan
12054;BME280;5638;50.860;4.698;2022-11-15T07:30:26;100327.34;;;10.44;nan
12054;BME280;5638;50.860;4.698;2022-11-15T07:33:00;100327.34;;;10.44;nan
12054;BME280;5638;50.860;4.698;2022-11-15T07:35:28;100323.13;;;10.40;nan
12054;BME280;5638;50.860;4.698;2022-11-15T07:38:03;100322.19;;;10.44;nan
12054;BME280;5638;50.860;4.698;2022-11-15T07:40:31;100304.06;;;10.44;nan
12054;BME280;5638;50.860;4.698;2022-11-15T07:43:06;100324.47;;;10.58;nan
12054;BME280;5638;50.860;4.698;2022-11-15T07:45:32;100315.09;;;10.54;nan
12054;BME280;5638;50.860;4.698;2022-11-15T07:48:01;100339.53;;;10.41;nan
12054;BME280;5638;50.860;4.698;2022-11-15T07:50:27;100342.81;;;10.47;nan
12054;BME280;5638;50.860;4.698;2022-11-15T07:52:58;100332.56;;;10.43;nan
12054;BME280;5638;50.860;4.698;2022-11-15T07:55:26;100336.50;;;10.59;nan
12054;BME280;5638;50.860;4.698;2022-11-15T07:58:00;100332.19;;;10.60;nan
12054;BME280;5638;50.860;4.698;2022-11-15T08:00:26;100328.19;;;10.84;nan
12054;BME280;5638;50.860;4.698;2022-11-15T08:02:52;100338.19;;;10.97;nan
12054;BME280;5638;50.860;4.698;2022-11-15T08:05:17;100327.84;;;10.97;nan
12054;BME280;5638;50.860;4.698;2022-11-15T08:07:43;100331.94;;;11.08;nan
12054;BME280;5638;50.860;4.698;2022-11-15T08:10:09;100324.47;;;11.30;nan
12054;BME280;5638;50.860;4.698;2022-11-15T08:12:37;100306.59;;;11.52;nan
12054;BME280;5638;50.860;4.698;2022-11-15T08:15:03;100308.53;;;11.43;nan
12054;BME280;5638;50.860;4.698;2022-11-15T08:17:29;100301.63;;;11.44;nan
12054;BME280;5638;50.860;4.698;2022-11-15T08:19:58;100306.28;;;11.95;nan
12054;BME280;5638;50.860;4.698;2022-11-15T08:22:24;100284.34;;;12.07;nan
12054;BME280;5638;50.860;4.698;2022-11-15T08:24:50;100297.91;;;12.16;nan
12054;BME280;5638;50.860;4.698;2022-11-15T08:27:16;100293.31;;;11.95;nan
12054;BME280;5638;50.860;4.698;2022-11-15T08:29:43;100280.91;;;11.75;nan
12054;BME280;5638;50.860;4.698;2022-11-15T08:32:10;100291.28;;;12.06;nan
12054;BME280;5638;50.860;4.698;2022-11-15T08:34:38;100283.50;;;12.34;nan
12054;BME280;5638;50.860;4.698;2022-11-15T08:37:04;100268.03;;;12.31;nan
12054;BME280;5638;50.860;4.698;2022-11-15T08:39:30;100272.44;;;12.29;nan
12054;BME280;5638;50.860;4.698;2022-11-15T08:41:56;100267.72;;;12.14;nan
12054;BME280;5638;50.860;4.698;2022-11-15T08:44:22;100277.59;;;12.01;nan
12054;BME280;5638;50.860;4.698;2022-11-15T08:46:49;100243.06;;;11.69;nan
12054;BME280;5638;50.860;4.698;2022-11-15T08:49:16;100276.47;;;11.79;nan
12054;BME280;5638;50.860;4.698;2022-11-15T08:51:42;100267.47;;;11.61;nan
12054;BME280;5638;50.860;4.698;2022-11-15T08:54:08;100258.72;;;11.66;nan
12054;BME280;5638;50.860;4.698;2022-11-15T08:56:34;100264.47;;;11.76;nan
12054;BME280;5638;50.860;4.698;2022-11-15T08:58:59;100270.72;;;11.69;nan
12054;BME280;5638;50.860;4.698;2022-11-15T09:01:25;100246.84;;;11.58;nan
12054;BME280;5638;50.860;4.698;2022-11-15T09:03:51;100251.63;;;11.40;nan
12054;BME280;5638;50.860;4.698;2022-11-15T09:06:18;100259.66;;;11.31;nan
12054;BME280;5638;50.860;4.698;2022-11-15T09:08:44;100236.88;;;11.13;nan
12054;BME280;5638;50.860;4.698;2022-11-15T09:11:10;100253.38;;;11.41;nan
12054;BME280;5638;50.860;4.698;2022-11-15T09:13:37;100252.63;;;11.67;nan
12054;BME280;5638;50.860;4.698;2022-11-15T09:16:04;100275.88;;;12.30;nan
12054;BME280;5638;50.860;4.698;2022-11-15T09:18:30;100257.34;;;12.42;nan
12054;BME280;5638;50.860;4.698;2022-11-15T09:20:58;100252.88;;;12.45;nan
12054;BME280;5638;50.860;4.698;2022-11-15T09:23:25;100250.44;;;12.94;nan
12054;BME280;5638;50.860;4.698;2022-11-15T09:25:52;100239.06;;;13.48;nan
12054;BME280;5638;50.860;4.698;2022-11-15T09:28:23;100226.97;;;13.47;nan
12054;BME280;5638;50.860;4.698;2022-11-15T09:30:48;100240.41;;;13.35;nan
12054;BME280;5638;50.860;4.698;2022-11-15T09:33:14;100222.50;;;13.27;nan
12054;BME280;5638;50.860;4.698;2022-11-15T09:35:40;100231.97;;;13.28;nan
12054;BME280;5638;50.860;4.698;2022-11-15T09:38:06;100237.47;;;13.44;nan
12054;BME280;5638;50.860;4.698;2022-11-15T09:40:36;100239.34;;;13.64;nan
12054;BME280;5638;50.860;4.698;2022-11-15T09:43:34;100234.84;;;14.14;nan
12054;BME280;5638;50.860;4.698;2022-11-15T09:48:49;100246.53;;;14.26;nan
12054;BME280;5638;50.860;4.698;2022-11-15T09:56:47;100223.38;;;14.84;nan
12054;BME280;5638;50.860;4.698;2022-11-15T09:59:51;100218.38;;;14.58;nan
12054;BME280;5638;50.860;4.698;2022-11-15T10:05:15;100226.63;;;14.45;nan
12054;BME280;5638;50.860;4.698;2022-11-15T10:11:09;100195.41;;;14.45;nan
12054;BME280;5638;50.860;4.698;2022-11-15T10:13:42;100203.13;;;14.49;nan
12054;BME280;5638;50.860;4.698;2022-11-15T10:22:28;100187.25;;;15.16;nan
12054;BME280;5638;50.860;4.698;2022-11-15T10:25:35;100182.38;;;14.88;nan
12054;BME280;5638;50.860;4.698;2022-11-15T10:28:21;100196.28;;;14.68;nan
12054;BME280;5638;50.860;4.698;2022-11-15T10:30:51;100172.47;;;14.13;nan
12054;BME280;5638;50.860;4.698;2022-11-15T10:33:39;100157.78;;;13.66;nan
12054;BME280;5638;50.860;4.698;2022-11-15T10:41:18;100143.31;;;13.83;nan
12054;BME280;5638;50.860;4.698;2022-11-15T10:46:28;100125.94;;;14.48;nan
12054;BME280;5638;50.860;4.698;2022-11-15T10:51:54;100129.81;;;14.59;nan
12054;BME280;5638;50.860;4.698;2022-11-15T10:54:56;100142.84;;;14.37;nan
12054;BME280;5638;50.860;4.698;2022-11-15T10:57:29;100102.94;;;14.16;nan
12054;BME280;5638;50.860;4.698;2022-11-15T11:00:31;100116.00;;;14.15;nan
12054;BME280;5638;50.860;4.698;2022-11-15T11:05:39;100105.59;;;14.15;nan
12054;BME280;5638;50.860;4.698;2022-11-15T11:10:38;100087.91;;;14.03;nan
12054;BME280;5638;50.860;4.698;2022-11-15T11:13:27;100070.00;;;13.95;nan
12054;BME280;5638;50.860;4.698;2022-11-15T11:28:21;100043.63;;;13.16;nan
12054;BME280;5638;50.860;4.698;2022-11-15T11:31:24;100053.41;;;13.10;nan
12054;BME280;5638;50.860;4.698;2022-11-15T11:36:59;100031.00;;;13.07;nan
12054;BME280;5638;50.860;4.698;2022-11-15T11:46:16;100019.09;;;13.25;nan
12054;BME280;5638;50.860;4.698;2022-11-15T11:49:08;100016.63;;;13.20;nan
12054;BME280;5638;50.860;4.698;2022-11-15T11:52:10;100007.00;;;13.24;nan
12054;BME280;5638;50.860;4.698;2022-11-15T12:00:26;99979.63;;;13.37;nan
12054;BME280;5638;50.860;4.698;2022-11-15T12:06:05;99951.00;;;13.17;nan
12054;BME280;5638;50.860;4.698;2022-11-15T12:08:53;99909.09;;;13.04;nan
12054;BME280;5638;50.860;4.698;2022-11-15T12:14:41;99954.75;;;13.32;nan
12054;BME280;5638;50.860;4.698;2022-11-15T12:17:12;99954.81;;;13.30;nan
12054;BME280;5638;50.860;4.698;2022-11-15T12:19:39;99936.97;;;13.21;nan
12054;BME280;5638;50.860;4.698;2022-11-15T12:22:47;99949.56;;;13.32;nan
12054;BME280;5638;50.860;4.698;2022-11-15T12:25:50;99933.25;;;13.28;nan
12054;BME280;5638;50.860;4.698;2022-11-15T12:28:40;99935.13;;;13.25;nan
12054;BME280;5638;50.860;4.698;2022-11-15T12:31:26;99897.72;;;13.07;nan
12054;BME280;5638;50.860;4.698;2022-11-15T12:33:58;99927.22;;;13.28;nan
12054;BME280;5638;50.860;4.698;2022-11-15T12:38:53;99915.34;;;13.20;nan
12054;BME280;5638;50.860;4.698;2022-11-15T12:41:26;99894.81;;;13.14;nan
12054;BME280;5638;50.860;4.698;2022-11-15T12:43:53;99917.28;;;13.15;nan
12054;BME280;5638;50.860;4.698;2022-11-15T13:02:40;99870.34;;;13.42;nan
12054;BME280;5638;50.860;4.698;2022-11-15T13:12:54;99850.94;;;13.51;nan
12054;BME280;5638;50.860;4.698;2022-11-15T13:17:56;99842.03;;;13.56;nan
12054;BME280;5638;50.860;4.698;2022-11-15T13:20:26;99831.53;;;13.58;nan
12054;BME280;5638;50.860;4.698;2022-11-15T13:33:36;99817.66;;;13.59;nan
12054;BME280;5638;50.860;4.698;2022-11-15T13:38:40;99803.13;;;13.55;nan
12054;BME280;5638;50.860;4.698;2022-11-15T13:41:23;99801.06;;;13.61;nan
12054;BME280;5638;50.860;4.698;2022-11-15T13:43:52;99785.44;;;13.63;nan
12054;BME280;5638;50.860;4.698;2022-11-15T13:46:27;99785.94;;;13.71;nan
12054;BME280;5638;50.860;4.698;2022-11-15T13:51:50;99772.28;;;13.66;nan
12054;BME280;5638;50.860;4.698;2022-11-15T13:54:28;99758.66;;;13.61;nan
12054;BME280;5638;50.860;4.698;2022-11-15T13:57:29;99761.75;;;13.69;nan
12054;BME280;5638;50.860;4.698;2022-11-15T14:00:04;99759.75;;;13.76;nan
12054;BME280;5638;50.860;4.698;2022-11-15T14:02:34;99752.06;;;13.73;nan
12054;BME280;5638;50.860;4.698;2022-11-15T14:05:23;99748.75;;;13.69;nan
12054;BME280;5638;50.860;4.698;2022-11-15T14:08:01;99747.22;;;13.65;nan
12054;BME280;5638;50.860;4.698;2022-11-15T14:10:35;99743.34;;;13.55;nan
12054;BME280;5638;50.860;4.698;2022-11-15T14:13:03;99729.03;;;13.65;nan
12054;BME280;5638;50.860;4.698;2022-11-15T14:15:34;99720.47;;;13.63;nan
12054;BME280;5638;50.860;4.698;2022-11-15T14:18:02;99709.38;;;13.59;nan
12054;BME280;5638;50.860;4.698;2022-11-15T14:23:03;99715.09;;;13.66;nan
12054;BME280;5638;50.860;4.698;2022-11-15T14:25:32;99720.25;;;13.67;nan
12054;BME280;5638;50.860;4.698;2022-11-15T14:28:32;99723.69;;;13.68;nan
12054;BME280;5638;50.860;4.698;2022-11-15T14:31:00;99721.22;;;13.65;nan
12054;BME280;5638;50.860;4.698;2022-11-15T14:33:37;99726.34;;;13.66;nan
12054;BME280;5638;50.860;4.698;2022-11-15T14:36:19;99713.06;;;13.54;nan
12054;BME280;5638;50.860;4.698;2022-11-15T14:38:46;99715.53;;;13.57;nan
12054;BME280;5638;50.860;4.698;2022-11-15T14:41:24;99724.66;;;13.47;nan
12054;BME280;5638;50.860;4.698;2022-11-15T14:43:52;99719.09;;;13.35;nan
12054;BME280;5638;50.860;4.698;2022-11-15T14:46:18;99715.13;;;13.27;nan
12054;BME280;5638;50.860;4.698;2022-11-15T14:48:45;99709.28;;;13.42;nan
12054;BME280;5638;50.860;4.698;2022-11-15T14:51:14;99703.38;;;13.38;nan
12054;BME280;5638;50.860;4.698;2022-11-15T14:53:42;99701.03;;;13.32;nan
12054;BME280;5638;50.860;4.698;2022-11-15T14:56:08;99703.28;;;13.40;nan
12054;BME280;5638;50.860;4.698;2022-11-15T14:58:35;99699.72;;;13.42;nan
12054;BME280;5638;50.860;4.698;2022-11-15T15:03:36;99687.28;;;13.30;nan
12054;BME280;5638;50.860;4.698;2022-11-15T15:06:01;99681.28;;;13.28;nan
12054;BME280;5638;50.860;4.698;2022-11-15T15:08:27;99695.06;;;13.30;nan
12054;BME280;5638;50.860;4.698;2022-11-15T15:10:53;99677.94;;;13.26;nan
12054;BME280;5638;50.860;4.698;2022-11-15T15:13:22;99692.47;;;13.30;nan
12054;BME280;5638;50.860;4.698;2022-11-15T15:15:50;99677.00;;;13.27;nan
12054;BME280;5638;50.860;4.698;2022-11-15T15:18:17;99666.38;;;13.13;nan
12054;BME280;5638;50.860;4.698;2022-11-15T15:20:49;99666.38;;;13.13;nan
12054;BME280;5638;50.860;4.698;2022-11-15T15:23:20;99683.75;;;13.11;nan
12054;BME280;5638;50.860;4.698;2022-11-15T15:25:47;99673.28;;;13.12;nan
12054;BME280;5638;50.860;4.698;2022-11-15T15:28:14;99676.88;;;13.10;nan
12054;BME280;5638;50.860;4.698;2022-11-15T15:30:40;99660.16;;;12.96;nan
12054;BME280;5638;50.860;4.698;2022-11-15T15:33:06;99651.66;;;12.93;nan
12054;BME280;5638;50.860;4.698;2022-11-15T15:35:34;99653.09;;;13.00;nan
12054;BME280;5638;50.860;4.698;2022-11-15T15:38:00;99668.91;;;12.94;nan
12054;BME280;5638;50.860;4.698;2022-11-15T15:40:30;99657.94;;;12.87;nan
12054;BME280;5638;50.860;4.698;2022-11-15T15:42:56;99644.06;;;12.88;nan
12054;BME280;5638;50.860;4.698;2022-11-15T15:45:25;99660.00;;;13.00;nan
12054;BME280;5638;50.860;4.698;2022-11-15T15:47:51;99646.19;;;12.99;nan
12054;BME280;5638;50.860;4.698;2022-11-15T15:50:27;99655.41;;;12.86;nan
12054;BME280;5638;50.860;4.698;2022-11-15T15:52:58;99659.78;;;12.85;nan
12054;BME280;5638;50.860;4.698;2022-11-15T15:55:24;99652.75;;;12.87;nan
12054;BME280;5638;50.860;4.698;2022-11-15T15:57:51;99642.00;;;12.76;nan
12054;BME280;5638;50.860;4.698;2022-11-15T16:00:18;99646.34;;;12.96;nan
12054;BME280;5638;50.860;4.698;2022-11-15T16:02:44;99629.25;;;12.90;nan
12054;BME280;5638;50.860;4.698;2022-11-15T16:05:11;99639.97;;;12.83;nan
12054;BME280;5638;50.860;4.698;2022-11-15T16:07:37;99634.53;;;12.68;nan
12054;BME280;5638;50.860;4.698;2022-11-15T16:10:31;99631.66;;;12.75;nan